Time;durP1;ratioP1;P1;durP2;ratioP2;P2;SDS_P1;SDS_P2;PMS_P1;PMS_P2;Temp;Humidity;BMP_temperature;BMP_pressure;BME280_temperature;BME280_humidity;BME280_pressure;Samples;Min_cycle;Max_cycle;Signal;HPM_P1;HPM_P2
2023/06/27 00:00:13;;;;;;;2.30;1.20;;;;;;;22.83;25.79;101603.03;5057164;28;20131;-78
2023/06/27 00:02:42;;;;;;;2.75;1.20;;;;;;;22.79;26.11;101609.19;5052542;28;20052;-79
2023/06/27 00:05:10;;;;;;;2.92;1.27;;;;;;;22.77;25.94;101617.75;5070401;28;20482;-78
2023/06/27 00:07:42;;;;;;;3.58;1.90;;;;;;;22.76;26.16;101615.16;5058056;28;20454;-78
2023/06/27 00:10:10;;;;;;;3.20;1.73;;;;;;;22.72;26.08;101609.13;5051187;28;20036;-78
2023/06/27 00:12:38;;;;;;;3.13;1.70;;;;;;;22.72;26.20;101611.03;5050267;28;20112;-77
2023/06/27 00:15:07;;;;;;;2.58;1.30;;;;;;;22.72;26.16;101613.81;5073092;28;20060;-78
2023/06/27 00:17:37;;;;;;;3.28;1.50;;;;;;;22.71;26.29;101615.75;5057153;28;20415;-78
2023/06/27 00:20:08;;;;;;;3.50;1.70;;;;;;;22.69;26.33;101617.00;5056297;28;20056;-78
2023/06/27 00:22:39;;;;;;;3.00;1.30;;;;;;;22.63;26.33;101613.06;5049260;28;20059;-78
2023/06/27 00:25:09;;;;;;;3.05;1.58;;;;;;;22.64;26.34;101623.19;5072808;28;20036;-78
2023/06/27 00:27:38;;;;;;;3.53;1.65;;;;;;;22.62;26.51;101619.72;5071674;28;20055;-78
2023/06/27 00:30:07;;;;;;;2.30;1.30;;;;;;;22.59;26.71;101620.13;5089759;28;20077;-78
2023/06/27 00:32:37;;;;;;;2.25;1.38;;;;;;;22.58;26.79;101619.25;5074015;28;20060;-79
2023/06/27 00:35:06;;;;;;;2.92;1.40;;;;;;;22.56;26.57;101620.50;5056476;28;20048;-79
2023/06/27 00:37:34;;;;;;;2.53;1.30;;;;;;;22.53;26.86;101620.84;5058207;28;20044;-79
2023/06/27 00:40:04;;;;;;;3.35;1.67;;;;;;;22.52;27.05;101619.13;5056030;28;20093;-79
2023/06/27 00:42:32;;;;;;;2.83;1.45;;;;;;;22.50;27.00;101619.34;5072422;28;20507;-79
2023/06/27 00:45:00;;;;;;;3.35;1.42;;;;;;;22.49;27.03;101619.53;5079877;28;20218;-79
2023/06/27 00:47:28;;;;;;;2.63;1.60;;;;;;;22.48;26.90;101612.22;5075509;28;20043;-79
2023/06/27 00:49:59;;;;;;;3.67;1.65;;;;;;;22.49;27.07;101616.72;5057944;28;20045;-79
2023/06/27 00:52:27;;;;;;;3.22;1.50;;;;;;;22.45;26.98;101615.38;5062609;28;20052;-79
2023/06/27 00:54:57;;;;;;;2.60;1.70;;;;;;;22.44;26.87;101619.22;5092598;28;20123;-79
2023/06/27 00:57:26;;;;;;;3.85;1.58;;;;;;;22.42;26.96;101613.88;5059075;28;20042;-79
2023/06/27 00:59:55;;;;;;;3.28;1.73;;;;;;;22.42;27.09;101613.00;5082707;28;20042;-79
2023/06/27 01:02:23;;;;;;;2.95;1.50;;;;;;;22.39;27.09;101613.38;5078742;28;20112;-79
2023/06/27 01:04:52;;;;;;;3.38;1.60;;;;;;;22.37;27.15;101613.56;5060150;28;20135;-79
2023/06/27 01:07:30;;;;;;;3.13;1.55;;;;;;;22.38;27.36;101608.84;5083735;28;20063;-79
2023/06/27 01:10:03;;;;;;;3.35;1.75;;;;;;;22.35;27.36;101612.88;5054103;28;20048;-79
2023/06/27 01:12:41;;;;;;;3.83;1.70;;;;;;;22.34;27.22;101613.97;5061347;28;20036;-79
2023/06/27 01:15:11;;;;;;;3.13;1.65;;;;;;;22.29;27.45;101605.28;5076689;28;20050;-79
2023/06/27 01:17:40;;;;;;;4.20;1.75;;;;;;;22.28;27.45;101614.72;5081737;28;20043;-79
2023/06/27 01:20:11;;;;;;;3.88;1.58;;;;;;;22.27;27.50;101616.63;5057619;28;20139;-79
2023/06/27 01:22:45;;;;;;;2.60;1.27;;;;;;;22.24;27.54;101613.38;5070469;28;20052;-79
2023/06/27 01:25:14;;;;;;;3.63;1.30;;;;;;;22.23;27.30;101612.53;5056216;28;20101;-80
2023/06/27 01:27:43;;;;;;;3.97;1.38;;;;;;;22.20;27.63;101609.25;5074431;28;20052;-79
2023/06/27 01:30:12;;;;;;;3.58;1.55;;;;;;;22.20;27.49;101609.25;5058368;28;20040;-79
2023/06/27 01:32:49;;;;;;;3.35;1.60;;;;;;;22.20;27.63;101612.91;5074495;28;20108;-80
2023/06/27 01:35:25;;;;;;;3.35;1.70;;;;;;;22.17;27.65;101607.72;5092952;28;20041;-80
2023/06/27 01:37:58;;;;;;;3.30;1.60;;;;;;;22.18;27.59;101611.34;5058543;28;20067;-79
2023/06/27 01:40:30;;;;;;;3.40;1.55;;;;;;;22.16;27.64;101605.13;5054875;28;20049;-79
2023/06/27 01:43:04;;;;;;;3.28;1.50;;;;;;;22.14;27.79;101608.09;5061279;28;20118;-79
2023/06/27 01:45:32;;;;;;;2.88;1.38;;;;;;;22.11;27.66;101607.59;5058139;28;20471;-79
2023/06/27 01:48:01;;;;;;;3.38;1.77;;;;;;;22.10;27.58;101603.94;5055312;28;20131;-79
2023/06/27 01:53:01;;;;;;;2.83;1.50;;;;;;;22.05;27.45;101598.09;5033485;28;20099;-83
2023/06/27 01:55:32;;;;;;;2.65;1.48;;;;;;;22.07;27.79;101595.13;5054962;28;20072;-82
2023/06/27 01:58:00;;;;;;;3.25;1.38;;;;;;;22.03;27.55;101602.13;5036782;28;20065;-81
2023/06/27 02:00:29;;;;;;;4.95;1.42;;;;;;;22.01;27.65;101601.47;5037598;28;20044;-80
2023/06/27 02:02:58;;;;;;;3.08;1.42;;;;;;;21.99;28.15;101596.09;5037187;28;20095;-80
2023/06/27 02:05:26;;;;;;;2.53;1.50;;;;;;;21.96;28.19;101593.69;5037585;28;20040;-81
2023/06/27 02:07:54;;;;;;;2.97;1.65;;;;;;;21.94;28.13;101593.00;5038018;28;20106;-81
2023/06/27 02:10:23;;;;;;;2.40;1.50;;;;;;;21.92;28.15;101591.47;5037434;28;20044;-80
2023/06/27 02:12:52;;;;;;;2.58;1.50;;;;;;;21.93;28.18;101601.56;5037107;28;20049;-80
2023/06/27 02:15:20;;;;;;;2.58;1.50;;;;;;;21.88;28.30;101594.59;5038482;28;20075;-82
2023/06/27 02:17:48;;;;;;;2.90;1.35;;;;;;;21.87;28.16;101594.78;5037607;28;20061;-80
2023/06/27 02:20:16;;;;;;;3.45;1.45;;;;;;;21.85;28.25;101603.31;5042461;28;20102;-82
2023/06/27 02:22:44;;;;;;;3.25;1.35;;;;;;;21.84;28.23;101603.53;5036906;28;20068;-81
2023/06/27 02:25:12;;;;;;;2.42;1.30;;;;;;;21.83;27.94;101601.81;5054277;28;20099;-81
2023/06/27 02:27:40;;;;;;;2.78;1.50;;;;;;;21.80;28.30;101597.47;5037103;28;20049;-80
2023/06/27 02:30:13;;;;;;;2.63;1.63;;;;;;;21.81;28.09;101595.56;5037867;28;20081;-79
2023/06/27 02:32:41;;;;;;;2.70;1.73;;;;;;;21.77;28.17;101600.63;5032201;28;20056;-81
2023/06/27 02:35:10;;;;;;;2.95;1.50;;;;;;;21.75;28.40;101590.75;5036530;28;20041;-81
2023/06/27 02:37:40;;;;;;;3.90;1.70;;;;;;;21.72;28.19;101589.22;5031936;28;20037;-82
2023/06/27 02:40:09;;;;;;;2.85;1.42;;;;;;;21.71;28.33;101589.38;5052117;28;20072;-80
2023/06/27 02:42:37;;;;;;;3.85;1.63;;;;;;;21.68;28.39;101590.66;5057518;28;20558;-80
2023/06/27 02:45:06;;;;;;;3.05;1.40;;;;;;;21.67;28.17;101577.78;5035305;28;20041;-79
2023/06/27 02:47:35;;;;;;;2.28;1.38;;;;;;;21.67;28.31;101576.91;5036064;28;20049;-79
2023/06/27 02:50:03;;;;;;;3.53;1.50;;;;;;;21.63;28.33;101583.91;5036310;28;20069;-81
2023/06/27 02:52:31;;;;;;;2.55;1.30;;;;;;;21.61;28.46;101586.00;5043320;28;20105;-80
2023/06/27 02:54:59;;;;;;;3.63;1.60;;;;;;;21.59;28.63;101589.00;5051690;28;20033;-79
2023/06/27 02:57:29;;;;;;;3.08;1.50;;;;;;;21.58;28.47;101590.06;5034490;28;20081;-80
2023/06/27 02:59:57;;;;;;;2.60;1.60;;;;;;;21.56;28.52;101592.16;5040165;28;20420;-80
2023/06/27 03:02:26;;;;;;;2.70;1.52;;;;;;;21.56;28.78;101596.88;5031634;28;20148;-80
2023/06/27 03:04:55;;;;;;;3.20;1.60;;;;;;;21.57;28.64;101596.69;5038903;28;20084;-81
2023/06/27 03:07:24;;;;;;;3.55;1.42;;;;;;;21.54;28.67;101599.84;5031176;28;20049;-80
2023/06/27 03:09:52;;;;;;;3.15;1.40;;;;;;;21.52;28.74;101593.56;5031040;28;20471;-81
2023/06/27 03:12:20;;;;;;;2.67;1.48;;;;;;;21.51;28.64;101594.66;5039953;28;20439;-80
2023/06/27 03:14:48;;;;;;;3.28;1.60;;;;;;;21.50;28.84;101599.34;5035294;28;20439;-81
2023/06/27 03:17:17;;;;;;;3.58;1.50;;;;;;;21.50;28.96;101601.28;5028784;28;20132;-81
2023/06/27 03:19:44;;;;;;;2.17;1.45;;;;;;;21.48;28.88;101590.31;5035879;28;20061;-81
2023/06/27 03:22:16;;;;;;;4.10;1.73;;;;;;;21.48;28.90;101600.59;5035381;28;20037;-80
2023/06/27 03:24:44;;;;;;;3.25;1.40;;;;;;;21.46;28.52;101605.47;5036298;28;20045;-80
2023/06/27 03:27:13;;;;;;;3.25;1.40;;;;;;;21.44;29.10;101600.09;5034709;28;20098;-80
2023/06/27 03:29:42;;;;;;;2.78;1.38;;;;;;;21.43;29.05;101601.16;5032589;28;20509;-80
2023/06/27 03:32:12;;;;;;;3.80;1.60;;;;;;;21.42;29.14;101602.22;5035147;28;20057;-80
2023/06/27 03:34:41;;;;;;;4.95;1.77;;;;;;;21.41;28.98;101603.28;5037806;28;20036;-84
2023/06/27 03:37:09;;;;;;;6.43;1.67;;;;;;;21.39;29.01;101602.59;5027966;28;20128;-82
2023/06/27 03:39:39;;;;;;;4.75;1.90;;;;;;;21.39;29.15;101597.00;5034555;28;20565;-82
2023/06/27 03:42:08;;;;;;;3.15;1.55;;;;;;;21.36;29.27;101596.50;5032571;28;20052;-78
2023/06/27 03:44:36;;;;;;;3.88;1.52;;;;;;;21.33;28.97;101595.00;5034937;28;20068;-83
2023/06/27 03:47:05;;;;;;;3.90;1.60;;;;;;;21.33;29.05;101602.47;5033384;28;20507;-81
2023/06/27 03:49:33;;;;;;;3.15;1.50;;;;;;;21.31;29.06;101602.66;5036832;28;20044;-82
2023/06/27 03:52:05;;;;;;;3.45;1.60;;;;;;;21.32;29.37;101601.59;5028869;28;20057;-79
2023/06/27 03:54:33;;;;;;;3.40;1.67;;;;;;;21.27;29.40;101600.44;5030332;28;20044;-82
2023/06/27 03:57:02;;;;;;;5.15;1.92;;;;;;;21.30;29.06;101606.50;5033456;28;20045;-79
2023/06/27 03:59:30;;;;;;;5.20;1.75;;;;;;;21.27;29.44;101606.00;5035422;28;20041;-81
2023/06/27 04:01:58;;;;;;;4.20;1.70;;;;;;;21.27;29.60;101603.22;5033626;28;20041;-80
2023/06/27 04:04:26;;;;;;;3.60;1.60;;;;;;;21.27;29.33;101592.09;5035609;28;20057;-79
2023/06/27 04:06:54;;;;;;;4.32;1.52;;;;;;;21.26;29.21;101598.72;5034188;28;20122;-81
2023/06/27 04:09:22;;;;;;;3.33;1.45;;;;;;;21.25;29.66;101596.94;5052904;28;20103;-80
2023/06/27 04:11:50;;;;;;;4.43;1.70;;;;;;;21.26;29.57;101601.50;5034590;28;20051;-80
2023/06/27 04:14:19;;;;;;;4.80;1.70;;;;;;;21.27;29.50;101595.75;5033415;28;20055;-80
2023/06/27 04:16:47;;;;;;;3.22;1.70;;;;;;;21.25;29.79;101600.59;5033196;28;20558;-79
2023/06/27 04:19:16;;;;;;;4.72;1.65;;;;;;;21.25;29.39;101611.72;5035981;28;20067;-79
2023/06/27 04:21:44;;;;;;;4.63;1.73;;;;;;;21.24;29.39;101604.44;5052519;28;20585;-80
2023/06/27 04:24:12;;;;;;;4.53;1.70;;;;;;;21.23;29.66;101597.13;5030478;28;20087;-83
2023/06/27 04:26:42;;;;;;;6.60;2.08;;;;;;;21.23;29.97;101597.13;5030839;28;20045;-80
2023/06/27 04:29:10;;;;;;;4.72;1.92;;;;;;;21.23;29.72;101596.25;5032548;28;20094;-81
2023/06/27 04:31:40;;;;;;;3.63;1.70;;;;;;;21.23;29.83;101605.47;5044334;28;20057;-80
2023/06/27 04:34:08;;;;;;;3.13;1.65;;;;;;;21.20;29.88;101603.06;5049870;28;20496;-82
2023/06/27 04:36:40;;;;;;;4.15;1.75;;;;;;;21.20;29.87;101607.75;5041622;28;20037;-82
2023/06/27 04:39:09;;;;;;;;;;;;;;;20.90;29.98;101609.56;5037364;28;20049;-81
2023/06/27 04:41:39;;;;;;;4.95;1.80;;;;;;;21.16;30.00;101601.72;5032795;28;19978;-82
2023/06/27 04:44:10;;;;;;;4.45;1.73;;;;;;;21.20;30.03;101607.75;5044661;28;20110;-82
2023/06/27 04:46:39;;;;;;;6.00;2.03;;;;;;;21.18;30.12;101607.97;5038137;28;20492;-83
2023/06/27 04:49:08;;;;;;;4.28;1.70;;;;;;;21.17;30.16;101610.94;5039873;28;20048;-81
2023/06/27 04:51:36;;;;;;;4.63;1.77;;;;;;;21.18;29.97;101607.09;5031393;28;20065;-83
2023/06/27 04:54:04;;;;;;;5.88;2.00;;;;;;;21.17;30.11;101599.78;5037245;28;20167;-81
2023/06/27 04:56:33;;;;;;;3.65;1.50;;;;;;;21.17;29.89;101602.56;5037676;28;20131;-82
2023/06/27 04:59:01;;;;;;;4.28;1.80;;;;;;;21.16;30.19;101607.28;5054203;28;20047;-82
2023/06/27 05:01:29;;;;;;;6.00;1.90;;;;;;;21.16;30.47;101610.06;5029523;28;20493;-81
2023/06/27 05:04:04;;;;;;;3.28;1.80;;;;;;;21.17;30.39;101603.44;5048849;28;20095;-81
2023/06/27 05:06:34;;;;;;;5.05;1.92;;;;;;;21.13;30.60;101604.84;5057420;28;20060;-82
2023/06/27 05:09:03;;;;;;;5.75;1.88;;;;;;;21.13;30.17;101605.72;5035121;28;20718;-82
2023/06/27 05:11:31;;;;;;;2.60;1.40;;;;;;;21.12;30.54;101600.34;5059277;28;20053;-81
2023/06/27 05:13:59;;;;;;;5.38;2.00;;;;;;;21.11;30.36;101601.38;5041654;28;20044;-81
2023/06/27 05:16:27;;;;;;;5.03;1.85;;;;;;;21.09;30.42;101604.38;5038467;28;20132;-81
2023/06/27 05:18:55;;;;;;;7.53;1.65;;;;;;;21.09;30.13;101597.94;5036877;28;20049;-81
2023/06/27 05:21:24;;;;;;;4.20;1.88;;;;;;;21.09;30.42;101601.59;5036559;28;20067;-82
2023/06/27 05:23:52;;;;;;;4.82;2.00;;;;;;;21.05;30.37;101605.78;5033642;28;20044;-81
2023/06/27 05:26:20;;;;;;;3.58;1.80;;;;;;;21.04;30.58;101603.19;5033923;28;20391;-82
2023/06/27 05:28:48;;;;;;;4.50;1.70;;;;;;;21.02;30.80;101611.75;5034705;28;20502;-82
2023/06/27 05:31:16;;;;;;;6.00;1.98;;;;;;;21.03;30.74;101612.56;5036060;28;20040;-81
2023/06/27 05:33:45;;;;;;;5.35;1.80;;;;;;;21.03;30.50;101613.44;5034972;28;20535;-81
2023/06/27 05:36:13;;;;;;;4.72;1.70;;;;;;;21.02;30.87;101613.66;5039286;28;20076;-82
2023/06/27 05:38:42;;;;;;;6.03;2.15;;;;;;;21.03;30.95;101607.00;5033786;28;20041;-82
2023/06/27 05:41:10;;;;;;;3.40;1.58;;;;;;;21.00;31.17;101613.84;5034837;28;20059;-81
2023/06/27 05:43:38;;;;;;;5.10;2.00;;;;;;;21.00;31.27;101607.41;5031224;28;20064;-81
2023/06/27 05:46:06;;;;;;;4.82;1.83;;;;;;;21.01;31.37;101609.13;5031215;28;20045;-81
2023/06/27 07:12:45;;;;;;;4.30;1.75;;;;;;;22.09;32.03;101607.81;5069969;23;20051;-69
2023/06/27 07:15:15;;;;;;;7.95;2.03;;;;;;;22.19;31.92;101607.50;5075273;28;20126;-69
2023/06/27 07:17:43;;;;;;;5.97;2.13;;;;;;;22.29;31.87;101613.66;5084080;28;20139;-69
2023/06/27 07:20:12;;;;;;;4.38;1.60;;;;;;;22.38;31.85;101611.63;5084300;28;20090;-69
2023/06/27 07:22:40;;;;;;;4.50;2.05;;;;;;;22.46;31.84;101615.19;5080873;28;20054;-69
2023/06/27 07:25:08;;;;;;;5.95;2.10;;;;;;;22.55;31.90;101616.84;5083948;28;20058;-69
2023/06/27 07:27:36;;;;;;;3.35;2.00;;;;;;;22.64;31.77;101609.22;5080054;28;20542;-69
2023/06/27 07:30:07;;;;;;;5.68;2.13;;;;;;;22.74;31.55;101614.50;5061282;28;20078;-69
2023/06/27 07:32:35;;;;;;;4.90;2.08;;;;;;;22.80;31.53;101622.09;5076596;28;20121;-69
2023/06/27 07:35:04;;;;;;;5.03;1.98;;;;;;;22.86;31.45;101612.91;5083780;28;22086;-70
2023/06/27 07:37:32;;;;;;;4.55;1.83;;;;;;;22.94;31.72;101608.06;5085414;28;20502;-70
2023/06/27 07:40:00;;;;;;;6.75;2.13;;;;;;;23.02;31.76;101609.88;5065951;28;20040;-69
2023/06/27 07:42:31;;;;;;;5.93;2.30;;;;;;;23.09;31.57;101608.00;5082313;28;20233;-70
2023/06/27 07:45:00;;;;;;;4.80;1.98;;;;;;;23.15;31.68;101609.16;5083797;28;20035;-69
2023/06/27 07:47:29;;;;;;;5.85;1.80;;;;;;;23.26;31.56;101603.91;5081962;28;20121;-69
2023/06/27 07:49:57;;;;;;;5.18;2.08;;;;;;;23.32;31.38;101596.69;5082745;28;20089;-69
2023/06/27 07:52:25;;;;;;;5.03;1.83;;;;;;;23.39;31.56;101606.00;5094327;22;20092;-68
2023/06/27 07:54:53;;;;;;;5.43;2.00;;;;;;;23.46;31.40;101606.91;5041619;28;20174;-68
2023/06/27 07:57:21;;;;;;;5.43;2.13;;;;;;;23.51;31.24;101604.38;5061046;28;20481;-68
2023/06/27 07:59:49;;;;;;;4.15;1.75;;;;;;;23.58;30.98;101608.06;5062245;28;20399;-68
2023/06/27 08:02:17;;;;;;;6.28;2.03;;;;;;;23.64;30.71;101607.28;5068420;28;20231;-69
2023/06/27 08:04:46;;;;;;;4.18;1.92;;;;;;;23.71;30.81;101604.53;5062068;28;20045;-69
2023/06/27 08:07:14;;;;;;;5.25;1.90;;;;;;;23.71;30.65;101599.81;5064795;28;20041;-69
2023/06/27 08:09:43;;;;;;;7.45;1.80;;;;;;;23.76;30.36;101599.22;5060968;28;20106;-69
2023/06/27 08:12:11;;;;;;;5.68;1.98;;;;;;;23.77;30.20;101601.81;5068455;28;20040;-69
2023/06/27 08:14:40;;;;;;;5.68;2.00;;;;;;;23.80;29.97;101599.69;5062140;28;20057;-69
2023/06/27 08:17:08;;;;;;;6.20;2.03;;;;;;;23.80;29.85;101606.16;5060785;28;20044;-69
2023/06/27 08:19:36;;;;;;;5.30;1.92;;;;;;;23.80;30.09;101606.16;5050497;28;20510;-69
2023/06/27 08:22:06;;;;;;;3.58;1.70;;;;;;;23.82;30.11;101601.22;5060253;28;20703;-69
2023/06/27 08:24:34;;;;;;;4.30;1.80;;;;;;;23.81;29.64;101598.63;5060794;28;20115;-69
2023/06/27 08:27:01;;;;;;;4.82;1.95;;;;;;;23.80;29.97;101594.97;5063861;28;20248;-68
2023/06/27 08:29:29;;;;;;;4.50;1.70;;;;;;;23.82;29.89;101594.78;5066817;28;20496;-68
2023/06/27 08:31:59;;;;;;;5.03;1.80;;;;;;;23.81;29.97;101591.09;5058916;28;20073;-67
2023/06/27 08:34:28;;;;;;;4.28;1.60;;;;;;;23.83;30.17;101597.34;5066597;28;20119;-68
2023/06/27 08:36:56;;;;;;;4.40;1.70;;;;;;;23.86;30.32;101573.72;5061105;28;20045;-67
2023/06/27 08:39:26;;;;;;;5.30;1.65;;;;;;;23.91;30.42;101574.81;5062095;28;20048;-68
2023/06/27 08:41:54;;;;;;;5.68;1.88;;;;;;;23.92;30.49;101564.50;5062981;28;20076;-68
2023/06/27 08:44:22;;;;;;;5.20;1.60;;;;;;;23.97;30.49;101570.34;5059767;28;20055;-68
2023/06/27 08:46:51;;;;;;;6.13;1.83;;;;;;;24.02;30.06;101576.16;5060729;28;20045;-67
2023/06/27 08:49:22;;;;;;;4.85;1.85;;;;;;;24.07;29.94;101574.47;5067524;28;20064;-68
2023/06/27 08:51:51;;;;;;;3.88;1.50;;;;;;;24.10;30.06;101559.22;5056956;28;20120;-68
2023/06/27 08:54:25;;;;;;;4.45;1.50;;;;;;;24.15;29.81;101560.31;5063114;28;20041;-67
2023/06/27 08:56:55;;;;;;;4.90;1.50;;;;;;;24.18;29.95;101561.84;5060234;28;20052;-68
2023/06/27 08:59:27;;;;;;;4.07;1.70;;;;;;;24.23;29.65;101570.50;5058574;28;20093;-67
2023/06/27 09:01:56;;;;;;;2.65;1.35;;;;;;;24.24;29.61;101566.59;5059616;28;20079;-68
2023/06/27 09:04:25;;;;;;;4.22;1.65;;;;;;;24.28;29.32;101558.69;5064562;28;20040;-68
2023/06/27 09:06:53;;;;;;;3.53;1.35;;;;;;;24.31;29.64;101563.88;5061786;28;20040;-68
2023/06/27 09:09:22;;;;;;;2.88;1.30;;;;;;;24.34;28.91;101563.44;5047222;28;20037;-68
2023/06/27 09:11:51;;;;;;;3.83;1.50;;;;;;;24.36;28.65;101565.00;5063539;28;20044;-68
2023/06/27 09:14:21;;;;;;;3.63;1.50;;;;;;;24.41;28.94;101567.16;5061963;28;20043;-67
2023/06/27 09:16:49;;;;;;;2.55;1.17;;;;;;;24.41;28.71;101567.16;5042001;28;20045;-67
2023/06/27 09:19:19;;;;;;;2.90;1.60;;;;;;;24.44;28.88;101564.81;5065105;28;20087;-67
2023/06/27 09:21:50;;;;;;;3.67;1.30;;;;;;;24.45;28.63;101565.66;5062759;28;20122;-68
2023/06/27 09:24:23;;;;;;;3.10;1.40;;;;;;;24.47;28.19;101560.75;5068389;28;20051;-68
2023/06/27 09:26:52;;;;;;;5.30;1.65;;;;;;;24.47;28.34;101556.00;5062139;28;20044;-67
2023/06/27 09:29:21;;;;;;;2.95;1.23;;;;;;;24.51;27.45;101564.81;5041613;28;20488;-68
2023/06/27 09:31:49;;;;;;;3.15;1.20;;;;;;;24.48;27.60;101554.91;5065733;28;20044;-67
2023/06/27 09:34:18;;;;;;;4.28;1.30;;;;;;;24.51;27.37;101551.69;5061922;28;20040;-67
2023/06/27 09:36:46;;;;;;;3.97;1.30;;;;;;;24.49;27.48;101551.03;5062055;28;20057;-68
2023/06/27 09:39:17;;;;;;;3.03;1.23;;;;;;;24.47;27.06;101542.00;5058283;28;20056;-68
2023/06/27 09:41:47;;;;;;;3.10;1.30;;;;;;;24.46;27.00;101540.28;5063376;28;20447;-68
2023/06/27 09:44:17;;;;;;;2.88;1.13;;;;;;;24.45;27.02;101544.16;5041571;28;20479;-68
2023/06/27 09:46:47;;;;;;;3.47;1.35;;;;;;;24.47;26.73;101549.53;5065935;28;20412;-67
2023/06/27 09:49:16;;;;;;;2.60;1.25;;;;;;;24.45;26.92;101548.88;5043601;28;20045;-68
2023/06/27 09:51:46;;;;;;;3.17;1.30;;;;;;;24.46;26.78;101551.47;5062283;28;20052;-67
2023/06/27 09:54:16;;;;;;;2.80;1.30;;;;;;;24.45;26.46;101552.56;5063824;28;20055;-67
2023/06/27 09:56:48;;;;;;;2.20;1.10;;;;;;;24.44;26.40;101555.53;5056883;28;20252;-67
2023/06/27 09:59:17;;;;;;;4.10;1.35;;;;;;;24.43;26.62;101562.22;5065906;28;20379;-67
2023/06/27 10:01:54;;;;;;;2.90;1.42;;;;;;;24.42;26.62;101563.28;5050175;28;20124;-68
2023/06/27 10:04:23;;;;;;;2.50;1.23;;;;;;;24.39;26.76;101566.53;5070688;28;20064;-68
2023/06/27 10:07:08;;;;;;;3.45;1.40;;;;;;;24.34;27.09;101557.84;5069878;28;20059;-68
2023/06/27 10:09:38;;;;;;;3.50;1.48;;;;;;;24.34;26.78;101563.44;5063081;28;20224;-67
2023/06/27 10:12:08;;;;;;;2.92;1.50;;;;;;;24.29;26.60;101557.59;5061983;28;20056;-67
2023/06/27 10:14:36;;;;;;;3.22;1.48;;;;;;;24.23;26.83;101550.94;5061950;28;20055;-67
2023/06/27 10:17:06;;;;;;;4.28;1.60;;;;;;;24.20;26.81;101553.25;5059907;28;20059;-67
2023/06/27 10:19:37;;;;;;;2.13;1.30;;;;;;;24.12;27.06;101565.47;5073655;28;20057;-68
2023/06/27 10:22:11;;;;;;;2.88;1.55;;;;;;;24.11;27.04;101564.63;5065850;28;20049;-67
2023/06/27 10:24:42;;;;;;;4.75;1.65;;;;;;;24.05;26.88;101568.25;5065346;28;20072;-68
2023/06/27 10:27:13;;;;;;;3.75;1.85;;;;;;;23.99;27.09;101568.22;5059940;28;20045;-67
2023/06/27 10:29:41;;;;;;;3.72;1.48;;;;;;;23.93;27.28;101564.28;5059852;28;20045;-67
2023/06/27 10:32:11;;;;;;;4.75;1.70;;;;;;;23.92;27.25;101572.88;5059181;28;20146;-68
2023/06/27 10:34:41;;;;;;;3.30;1.40;;;;;;;23.87;27.47;101562.31;5068954;28;20090;-67
2023/06/27 10:37:11;;;;;;;4.05;1.58;;;;;;;23.85;27.03;101566.38;5069869;28;20244;-67
2023/06/27 10:39:41;;;;;;;2.50;1.40;;;;;;;23.80;27.13;101560.56;5066107;28;20099;-67
2023/06/27 10:42:28;;;;;;;3.33;1.50;;;;;;;23.77;26.75;101561.81;5059781;28;20559;-67
2023/06/27 10:45:02;;;;;;;4.13;1.60;;;;;;;23.76;26.74;101558.16;5064886;28;20420;-67
2023/06/27 10:47:34;;;;;;;4.05;1.45;;;;;;;23.73;26.99;101564.16;5064256;28;20052;-67
2023/06/27 10:50:07;;;;;;;3.90;1.65;;;;;;;23.72;26.99;101564.34;5063149;28;20135;-67
2023/06/27 10:52:35;;;;;;;3.55;1.33;;;;;;;23.65;27.23;101564.31;5069516;28;20049;-67
2023/06/27 10:55:22;;;;;;;4.13;1.65;;;;;;;23.66;27.21;101566.00;5062820;28;20055;-67
2023/06/27 10:57:57;;;;;;;3.50;1.60;;;;;;;23.65;27.05;101561.50;5069219;28;20044;-67
2023/06/27 11:00:29;;;;;;;2.45;1.50;;;;;;;23.64;27.39;101558.91;5062601;28;20051;-67
2023/06/27 11:03:03;;;;;;;2.72;1.35;;;;;;;23.63;27.37;101548.81;5062307;28;20044;-68
2023/06/27 11:05:46;;;;;;;3.50;1.65;;;;;;;23.65;27.19;101560.66;5049848;28;20143;-67
2023/06/27 11:08:15;;;;;;;4.10;1.52;;;;;;;23.62;27.55;101563.84;5064437;28;20045;-67
2023/06/27 11:10:51;;;;;;;4.25;1.42;;;;;;;23.68;27.45;101560.22;5061146;28;20037;-67
2023/06/27 11:13:22;;;;;;;3.40;1.30;;;;;;;23.68;27.29;101546.25;5064438;28;20058;-67
2023/06/27 11:15:52;;;;;;;4.15;1.58;;;;;;;23.69;27.37;101561.94;5063328;28;20040;-67
2023/06/27 11:18:25;;;;;;;5.20;1.58;;;;;;;23.73;27.11;101555.75;5060062;28;20053;-67
2023/06/27 11:20:53;;;;;;;3.30;1.23;;;;;;;23.72;26.91;101545.66;5065385;28;20043;-67
2023/06/27 11:23:22;;;;;;;2.97;1.25;;;;;;;23.74;26.66;101568.63;5064312;28;20556;-66
2023/06/27 11:25:50;;;;;;;2.60;1.40;;;;;;;23.76;26.85;101571.28;5064548;28;20533;-67
2023/06/27 11:28:19;;;;;;;3.47;1.60;;;;;;;23.77;26.54;101564.63;5065296;28;20040;-68
2023/06/27 11:30:47;;;;;;;3.28;1.42;;;;;;;23.77;26.42;101554.31;5062888;28;20524;-67
2023/06/27 11:33:20;;;;;;;2.63;1.30;;;;;;;23.81;26.56;101554.78;5058061;28;20106;-67
2023/06/27 11:35:50;;;;;;;3.55;1.50;;;;;;;23.81;26.16;101557.56;5067551;28;20063;-69
2023/06/27 11:38:18;;;;;;;2.72;1.20;;;;;;;23.79;26.31;101556.03;5068798;28;20393;-70
2023/06/27 11:40:50;;;;;;;3.88;1.60;;;;;;;23.82;26.61;101550.91;5062846;28;20625;-69
2023/06/27 11:43:18;;;;;;;3.10;1.23;;;;;;;23.76;26.62;101560.09;5052843;28;20057;-67
2023/06/27 11:45:46;;;;;;;2.90;1.40;;;;;;;23.78;26.50;101549.56;5064923;28;20661;-67
2023/06/27 11:48:14;;;;;;;3.28;1.70;;;;;;;23.76;26.53;101552.56;5056056;28;20076;-71
2023/06/27 11:50:58;;;;;;;4.10;1.40;;;;;;;23.76;26.64;101554.50;5064230;28;20172;-68
2023/06/27 11:53:27;;;;;;;3.30;1.60;;;;;;;23.72;26.75;101553.16;5061452;28;20463;-70
2023/06/27 11:55:56;;;;;;;3.88;1.48;;;;;;;23.70;26.70;101544.97;5042539;28;20625;-67
2023/06/27 11:58:30;;;;;;;3.78;1.60;;;;;;;23.67;26.93;101545.38;5065456;28;20045;-69
2023/06/27 12:00:59;;;;;;;4.22;1.50;;;;;;;23.66;26.85;101548.41;5064945;28;20041;-67
2023/06/27 12:03:28;;;;;;;4.30;1.70;;;;;;;23.65;27.02;101558.72;5066895;28;20047;-68
2023/06/27 12:05:58;;;;;;;3.50;1.63;;;;;;;23.66;27.19;101556.78;5071151;28;20044;-71
2023/06/27 12:08:31;;;;;;;3.15;1.42;;;;;;;23.66;27.53;101548.41;5075212;28;20318;-67
2023/06/27 12:11:02;;;;;;;3.00;1.60;;;;;;;23.64;27.81;101544.94;5065641;28;20044;-67
2023/06/27 12:13:35;;;;;;;2.85;1.60;;;;;;;23.68;27.61;101541.53;5062232;28;20056;-67
2023/06/27 12:16:04;;;;;;;4.18;1.55;;;;;;;23.71;27.70;101541.13;5061245;28;20048;-67
2023/06/27 12:18:32;;;;;;;4.55;1.70;;;;;;;23.76;27.66;101543.31;5059935;28;20044;-67
2023/06/27 12:21:01;;;;;;;3.72;1.50;;;;;;;23.83;27.39;101532.19;5069341;28;20048;-68
2023/06/27 12:23:30;;;;;;;2.97;1.58;;;;;;;23.86;27.25;101538.22;5056241;28;20041;-67
2023/06/27 12:25:59;;;;;;;3.42;1.50;;;;;;;23.91;27.46;101532.88;5056962;28;20056;-67
2023/06/27 12:28:27;;;;;;;3.35;1.60;;;;;;;23.96;27.21;101524.75;5060293;28;20475;-67
2023/06/27 12:30:55;;;;;;;2.92;1.52;;;;;;;24.01;27.12;101524.97;5060447;28;20049;-67
2023/06/27 12:33:23;;;;;;;4.15;1.50;;;;;;;24.05;27.06;101523.50;5062570;28;20412;-67
2023/06/27 12:35:53;;;;;;;5.10;1.70;;;;;;;24.10;26.62;101523.72;5069945;28;20039;-67
2023/06/27 12:38:22;;;;;;;3.45;1.60;;;;;;;24.15;26.74;101525.94;5061479;28;20479;-68
2023/06/27 12:40:50;;;;;;;2.45;1.40;;;;;;;24.18;26.83;101524.63;5063135;28;20047;-67
2023/06/27 12:43:18;;;;;;;3.60;1.42;;;;;;;24.21;26.63;101516.69;5062548;28;20080;-67
2023/06/27 12:45:58;;;;;;;4.07;1.50;;;;;;;24.27;26.38;101520.59;5053462;28;20043;-67
2023/06/27 12:48:26;;;;;;;5.07;1.80;;;;;;;24.27;26.42;101515.00;5059211;28;20094;-67
2023/06/27 12:50:55;;;;;;;3.65;1.45;;;;;;;24.30;26.78;101515.44;5067144;28;20044;-66
2023/06/27 12:53:25;;;;;;;4.18;1.73;;;;;;;24.34;26.22;101513.06;5052158;28;20070;-67
2023/06/27 12:55:54;;;;;;;3.42;1.70;;;;;;;24.34;26.27;101505.53;5068350;28;20047;-68
2023/06/27 12:58:24;;;;;;;5.10;1.75;;;;;;;24.37;26.04;101512.69;5070627;28;20040;-69
2023/06/27 13:00:54;;;;;;;3.17;1.70;;;;;;;24.38;26.14;101511.63;5071143;28;20060;-67